Alida, Canada
Current Conditions -  °F | °C
As of 4:00 PM on Thursday 18 Dec 2014 (Local Time) from CYEN Reporting Station
Light Snow Light Snow  
Wind Chill: -10°   Ceiling: 800
Heat Index: -5°   Visibility: 7mi
Dew Point: -7°   Wind: 8mph
Humidity: 86%   Direction: 200°SSW
Pressure: 29.94"   Gusts: NA
Location:  49.38°N, 101.87°W
Report Text: CYEN 182200Z 20007KT 7SM -SN DRSN OVC008 M05/M07 A2994 RMK SC8 FG SLP177
Loading
Personal Weather Stations






























Interactive Weather Map New forecast layout! Learn more

10-Day Weather Forecast

Advertisements
Track Severe Weather on mobile